sensor_id;sensor_type;location;lat;lon;timestamp;P1;durP1;ratioP1;P2;durP2;ratioP2
74100;SDS011;62462;52.530;21.682;2024-01-07T00:00:02;377.77;;;78.70;;
74100;SDS011;62462;52.530;21.682;2024-01-07T00:02:28;152.40;;;32.13;;
74100;SDS011;62462;52.530;21.682;2024-01-07T00:04:55;311.80;;;63.63;;
74100;SDS011;62462;52.530;21.682;2024-01-07T00:07:21;190.17;;;45.70;;
74100;SDS011;62462;52.530;21.682;2024-01-07T00:09:47;254.83;;;53.10;;
74100;SDS011;62462;52.530;21.682;2024-01-07T00:12:13;156.10;;;34.77;;
74100;SDS011;62462;52.530;21.682;2024-01-07T00:14:39;152.87;;;35.00;;
74100;SDS011;62462;52.530;21.682;2024-01-07T00:17:04;309.50;;;74.87;;
74100;SDS011;62462;52.530;21.682;2024-01-07T00:19:30;238.33;;;56.47;;
74100;SDS011;62462;52.530;21.682;2024-01-07T00:22:00;153.43;;;36.43;;
74100;SDS011;62462;52.530;21.682;2024-01-07T00:24:26;111.27;;;30.33;;
74100;SDS011;62462;52.530;21.682;2024-01-07T00:26:54;166.20;;;47.57;;
74100;SDS011;62462;52.530;21.682;2024-01-07T00:29:19;107.47;;;31.67;;
74100;SDS011;62462;52.530;21.682;2024-01-07T00:31:45;80.77;;;25.07;;
74100;SDS011;62462;52.530;21.682;2024-01-07T00:34:11;232.13;;;58.70;;
74100;SDS011;62462;52.530;21.682;2024-01-07T00:36:37;107.27;;;33.33;;
74100;SDS011;62462;52.530;21.682;2024-01-07T00:39:03;154.90;;;41.13;;
74100;SDS011;62462;52.530;21.682;2024-01-07T00:41:28;96.73;;;28.50;;
74100;SDS011;62462;52.530;21.682;2024-01-07T00:43:55;201.90;;;53.07;;
74100;SDS011;62462;52.530;21.682;2024-01-07T00:46:21;77.33;;;25.47;;
74100;SDS011;62462;52.530;21.682;2024-01-07T00:48:47;119.00;;;36.70;;
74100;SDS011;62462;52.530;21.682;2024-01-07T00:51:12;95.03;;;27.03;;
74100;SDS011;62462;52.530;21.682;2024-01-07T00:53:38;243.90;;;59.13;;
74100;SDS011;62462;52.530;21.682;2024-01-07T00:56:04;218.03;;;55.77;;
74100;SDS011;62462;52.530;21.682;2024-01-07T00:58:30;159.30;;;39.80;;
74100;SDS011;62462;52.530;21.682;2024-01-07T01:00:56;122.77;;;34.30;;
74100;SDS011;62462;52.530;21.682;2024-01-07T01:03:22;146.67;;;38.03;;
74100;SDS011;62462;52.530;21.682;2024-01-07T01:05:47;91.87;;;26.57;;
74100;SDS011;62462;52.530;21.682;2024-01-07T01:08:13;113.23;;;29.40;;
74100;SDS011;62462;52.530;21.682;2024-01-07T01:10:39;183.87;;;41.77;;
74100;SDS011;62462;52.530;21.682;2024-01-07T01:13:04;177.10;;;40.20;;
74100;SDS011;62462;52.530;21.682;2024-01-07T01:15:30;174.60;;;39.77;;
74100;SDS011;62462;52.530;21.682;2024-01-07T01:17:56;80.47;;;21.97;;
74100;SDS011;62462;52.530;21.682;2024-01-07T01:20:24;180.13;;;40.43;;
74100;SDS011;62462;52.530;21.682;2024-01-07T01:22:50;301.07;;;66.40;;
74100;SDS011;62462;52.530;21.682;2024-01-07T01:25:16;246.33;;;56.40;;
74100;SDS011;62462;52.530;21.682;2024-01-07T01:27:42;242.33;;;51.87;;
74100;SDS011;62462;52.530;21.682;2024-01-07T01:30:07;151.43;;;38.30;;
74100;SDS011;62462;52.530;21.682;2024-01-07T01:32:33;98.77;;;24.43;;
74100;SDS011;62462;52.530;21.682;2024-01-07T01:34:59;179.07;;;42.87;;
74100;SDS011;62462;52.530;21.682;2024-01-07T01:37:25;350.90;;;86.33;;
74100;SDS011;62462;52.530;21.682;2024-01-07T01:39:50;170.60;;;44.93;;
74100;SDS011;62462;52.530;21.682;2024-01-07T01:42:16;137.57;;;37.70;;
74100;SDS011;62462;52.530;21.682;2024-01-07T01:44:42;113.20;;;32.77;;
74100;SDS011;62462;52.530;21.682;2024-01-07T01:47:07;128.10;;;37.30;;
74100;SDS011;62462;52.530;21.682;2024-01-07T01:49:35;91.33;;;29.40;;
74100;SDS011;62462;52.530;21.682;2024-01-07T01:52:03;74.73;;;26.20;;
74100;SDS011;62462;52.530;21.682;2024-01-07T01:54:29;309.73;;;78.80;;
74100;SDS011;62462;52.530;21.682;2024-01-07T01:56:55;73.70;;;25.93;;
74100;SDS011;62462;52.530;21.682;2024-01-07T01:59:21;62.40;;;21.10;;
74100;SDS011;62462;52.530;21.682;2024-01-07T02:01:47;121.07;;;35.53;;
74100;SDS011;62462;52.530;21.682;2024-01-07T02:04:14;37.40;;;15.43;;
74100;SDS011;62462;52.530;21.682;2024-01-07T02:06:40;89.10;;;28.80;;
74100;SDS011;62462;52.530;21.682;2024-01-07T02:09:06;33.90;;;14.00;;
74100;SDS011;62462;52.530;21.682;2024-01-07T02:11:32;65.27;;;24.70;;
74100;SDS011;62462;52.530;21.682;2024-01-07T02:13:57;31.07;;;14.20;;
74100;SDS011;62462;52.530;21.682;2024-01-07T02:16:23;23.80;;;11.43;;
74100;SDS011;62462;52.530;21.682;2024-01-07T02:18:49;24.53;;;11.20;;
74100;SDS011;62462;52.530;21.682;2024-01-07T02:21:15;31.53;;;13.80;;
74100;SDS011;62462;52.530;21.682;2024-01-07T02:23:41;24.47;;;12.07;;
74100;SDS011;62462;52.530;21.682;2024-01-07T02:26:06;40.53;;;15.97;;
74100;SDS011;62462;52.530;21.682;2024-01-07T02:28:32;30.83;;;12.93;;
74100;SDS011;62462;52.530;21.682;2024-01-07T02:30:58;47.20;;;18.03;;
74100;SDS011;62462;52.530;21.682;2024-01-07T02:33:24;39.20;;;16.40;;
74100;SDS011;62462;52.530;21.682;2024-01-07T02:35:50;28.77;;;11.97;;
74100;SDS011;62462;52.530;21.682;2024-01-07T02:38:16;29.53;;;11.37;;
74100;SDS011;62462;52.530;21.682;2024-01-07T02:40:41;41.53;;;16.87;;
74100;SDS011;62462;52.530;21.682;2024-01-07T02:43:07;76.23;;;24.93;;
74100;SDS011;62462;52.530;21.682;2024-01-07T02:45:33;55.87;;;20.43;;
74100;SDS011;62462;52.530;21.682;2024-01-07T02:47:59;41.63;;;16.73;;
74100;SDS011;62462;52.530;21.682;2024-01-07T02:50:25;38.97;;;15.93;;
74100;SDS011;62462;52.530;21.682;2024-01-07T02:52:50;29.93;;;12.30;;
74100;SDS011;62462;52.530;21.682;2024-01-07T02:55:17;27.30;;;12.20;;
74100;SDS011;62462;52.530;21.682;2024-01-07T02:57:43;17.90;;;9.13;;
74100;SDS011;62462;52.530;21.682;2024-01-07T03:00:09;23.43;;;11.23;;
74100;SDS011;62462;52.530;21.682;2024-01-07T03:02:35;30.90;;;13.90;;
74100;SDS011;62462;52.530;21.682;2024-01-07T03:05:01;34.97;;;13.97;;
74100;SDS011;62462;52.530;21.682;2024-01-07T03:07:27;30.63;;;13.87;;
74100;SDS011;62462;52.530;21.682;2024-01-07T03:09:53;27.63;;;12.00;;
74100;SDS011;62462;52.530;21.682;2024-01-07T03:12:19;27.37;;;11.87;;
74100;SDS011;62462;52.530;21.682;2024-01-07T03:14:44;30.43;;;13.03;;
74100;SDS011;62462;52.530;21.682;2024-01-07T03:17:10;22.13;;;10.87;;
74100;SDS011;62462;52.530;21.682;2024-01-07T03:19:39;34.60;;;15.27;;
74100;SDS011;62462;52.530;21.682;2024-01-07T03:22:05;33.50;;;12.73;;
74100;SDS011;62462;52.530;21.682;2024-01-07T03:24:32;34.30;;;13.73;;
74100;SDS011;62462;52.530;21.682;2024-01-07T03:26:58;24.17;;;12.00;;
74100;SDS011;62462;52.530;21.682;2024-01-07T03:29:23;23.03;;;10.00;;
74100;SDS011;62462;52.530;21.682;2024-01-07T03:31:49;16.63;;;8.30;;
74100;SDS011;62462;52.530;21.682;2024-01-07T03:34:16;17.67;;;9.27;;
74100;SDS011;62462;52.530;21.682;2024-01-07T03:36:41;17.97;;;9.67;;
74100;SDS011;62462;52.530;21.682;2024-01-07T03:39:08;16.87;;;9.37;;
74100;SDS011;62462;52.530;21.682;2024-01-07T03:41:34;23.27;;;11.50;;
74100;SDS011;62462;52.530;21.682;2024-01-07T03:43:59;30.63;;;13.30;;
74100;SDS011;62462;52.530;21.682;2024-01-07T03:46:25;41.63;;;17.20;;
74100;SDS011;62462;52.530;21.682;2024-01-07T03:48:51;48.47;;;19.47;;
74100;SDS011;62462;52.530;21.682;2024-01-07T03:51:16;28.10;;;12.60;;
74100;SDS011;62462;52.530;21.682;2024-01-07T03:53:42;22.53;;;11.73;;
74100;SDS011;62462;52.530;21.682;2024-01-07T03:56:08;22.40;;;11.07;;
74100;SDS011;62462;52.530;21.682;2024-01-07T03:58:34;21.50;;;10.33;;
74100;SDS011;62462;52.530;21.682;2024-01-07T04:01:00;19.60;;;9.83;;
74100;SDS011;62462;52.530;21.682;2024-01-07T04:03:26;19.80;;;9.97;;
74100;SDS011;62462;52.530;21.682;2024-01-07T04:05:51;19.73;;;9.47;;
74100;SDS011;62462;52.530;21.682;2024-01-07T04:08:17;19.77;;;10.07;;
74100;SDS011;62462;52.530;21.682;2024-01-07T04:10:43;19.23;;;10.23;;
74100;SDS011;62462;52.530;21.682;2024-01-07T04:13:09;20.13;;;10.10;;
74100;SDS011;62462;52.530;21.682;2024-01-07T04:15:35;21.27;;;9.93;;
74100;SDS011;62462;52.530;21.682;2024-01-07T04:18:04;17.70;;;8.73;;
74100;SDS011;62462;52.530;21.682;2024-01-07T04:20:30;23.07;;;10.97;;
74100;SDS011;62462;52.530;21.682;2024-01-07T04:22:56;24.60;;;12.03;;
74100;SDS011;62462;52.530;21.682;2024-01-07T04:25:23;20.70;;;10.60;;
74100;SDS011;62462;52.530;21.682;2024-01-07T04:27:49;17.83;;;8.77;;
74100;SDS011;62462;52.530;21.682;2024-01-07T04:30:15;17.40;;;8.50;;
74100;SDS011;62462;52.530;21.682;2024-01-07T04:32:41;14.43;;;8.43;;
74100;SDS011;62462;52.530;21.682;2024-01-07T04:35:06;16.23;;;8.70;;
74100;SDS011;62462;52.530;21.682;2024-01-07T04:37:33;19.00;;;8.57;;
74100;SDS011;62462;52.530;21.682;2024-01-07T04:39:59;17.80;;;8.53;;
74100;SDS011;62462;52.530;21.682;2024-01-07T04:42:25;17.47;;;8.03;;
74100;SDS011;62462;52.530;21.682;2024-01-07T04:44:51;19.77;;;8.80;;
74100;SDS011;62462;52.530;21.682;2024-01-07T04:47:26;15.60;;;7.90;;
74100;SDS011;62462;52.530;21.682;2024-01-07T04:49:53;18.90;;;8.20;;
74100;SDS011;62462;52.530;21.682;2024-01-07T04:52:19;17.60;;;8.50;;
74100;SDS011;62462;52.530;21.682;2024-01-07T04:54:46;18.40;;;8.23;;
74100;SDS011;62462;52.530;21.682;2024-01-07T04:57:12;14.03;;;7.90;;
74100;SDS011;62462;52.530;21.682;2024-01-07T04:59:37;18.57;;;8.07;;
74100;SDS011;62462;52.530;21.682;2024-01-07T05:02:03;15.33;;;7.63;;
74100;SDS011;62462;52.530;21.682;2024-01-07T05:04:29;15.03;;;7.60;;
74100;SDS011;62462;52.530;21.682;2024-01-07T05:06:54;16.40;;;7.63;;
74100;SDS011;62462;52.530;21.682;2024-01-07T05:09:20;16.97;;;7.60;;
74100;SDS011;62462;52.530;21.682;2024-01-07T05:11:46;15.93;;;7.97;;
74100;SDS011;62462;52.530;21.682;2024-01-07T05:14:12;15.03;;;8.23;;
74100;SDS011;62462;52.530;21.682;2024-01-07T05:16:37;14.30;;;7.30;;
74100;SDS011;62462;52.530;21.682;2024-01-07T05:19:03;14.23;;;8.10;;
74100;SDS011;62462;52.530;21.682;2024-01-07T05:21:29;16.47;;;8.50;;
74100;SDS011;62462;52.530;21.682;2024-01-07T05:23:55;16.53;;;7.53;;
74100;SDS011;62462;52.530;21.682;2024-01-07T05:26:21;16.10;;;7.70;;
74100;SDS011;62462;52.530;21.682;2024-01-07T05:28:47;18.13;;;7.80;;
74100;SDS011;62462;52.530;21.682;2024-01-07T05:31:16;13.87;;;7.50;;
74100;SDS011;62462;52.530;21.682;2024-01-07T05:33:44;14.73;;;7.57;;
74100;SDS011;62462;52.530;21.682;2024-01-07T05:36:11;15.60;;;7.50;;
74100;SDS011;62462;52.530;21.682;2024-01-07T05:38:37;17.83;;;7.90;;
74100;SDS011;62462;52.530;21.682;2024-01-07T05:41:03;17.30;;;7.70;;
74100;SDS011;62462;52.530;21.682;2024-01-07T05:43:29;15.93;;;8.20;;
74100;SDS011;62462;52.530;21.682;2024-01-07T05:45:55;18.00;;;9.07;;
74100;SDS011;62462;52.530;21.682;2024-01-07T05:48:21;15.57;;;8.40;;
74100;SDS011;62462;52.530;21.682;2024-01-07T05:50:47;16.73;;;7.77;;
74100;SDS011;62462;52.530;21.682;2024-01-07T05:53:13;14.30;;;7.63;;
74100;SDS011;62462;52.530;21.682;2024-01-07T05:55:39;13.90;;;7.20;;
74100;SDS011;62462;52.530;21.682;2024-01-07T05:58:05;13.33;;;7.30;;
74100;SDS011;62462;52.530;21.682;2024-01-07T06:00:31;14.27;;;7.23;;
74100;SDS011;62462;52.530;21.682;2024-01-07T06:02:56;14.47;;;7.07;;
74100;SDS011;62462;52.530;21.682;2024-01-07T06:05:22;14.87;;;6.93;;
74100;SDS011;62462;52.530;21.682;2024-01-07T06:07:48;14.37;;;7.43;;
74100;SDS011;62462;52.530;21.682;2024-01-07T06:10:14;15.00;;;6.93;;
74100;SDS011;62462;52.530;21.682;2024-01-07T06:12:40;15.23;;;7.80;;
74100;SDS011;62462;52.530;21.682;2024-01-07T06:15:06;16.23;;;6.90;;
74100;SDS011;62462;52.530;21.682;2024-01-07T06:17:32;14.30;;;7.00;;
74100;SDS011;62462;52.530;21.682;2024-01-07T06:19:58;12.97;;;6.03;;
74100;SDS011;62462;52.530;21.682;2024-01-07T06:22:24;15.20;;;7.17;;
74100;SDS011;62462;52.530;21.682;2024-01-07T06:24:49;16.97;;;7.10;;
74100;SDS011;62462;52.530;21.682;2024-01-07T06:27:15;16.03;;;7.03;;
74100;SDS011;62462;52.530;21.682;2024-01-07T06:29:41;13.30;;;7.00;;
74100;SDS011;62462;52.530;21.682;2024-01-07T06:32:07;13.43;;;7.53;;
74100;SDS011;62462;52.530;21.682;2024-01-07T06:34:34;15.57;;;7.93;;
74100;SDS011;62462;52.530;21.682;2024-01-07T06:37:00;18.17;;;8.77;;
74100;SDS011;62462;52.530;21.682;2024-01-07T06:39:26;15.93;;;7.87;;
74100;SDS011;62462;52.530;21.682;2024-01-07T06:41:52;15.87;;;7.67;;
74100;SDS011;62462;52.530;21.682;2024-01-07T06:44:18;19.10;;;9.30;;
74100;SDS011;62462;52.530;21.682;2024-01-07T06:46:44;14.27;;;7.60;;
74100;SDS011;62462;52.530;21.682;2024-01-07T06:49:09;17.67;;;8.37;;
74100;SDS011;62462;52.530;21.682;2024-01-07T06:51:35;18.17;;;7.97;;
74100;SDS011;62462;52.530;21.682;2024-01-07T06:54:02;18.13;;;9.27;;
74100;SDS011;62462;52.530;21.682;2024-01-07T06:56:28;16.87;;;9.07;;
74100;SDS011;62462;52.530;21.682;2024-01-07T06:58:53;17.80;;;9.13;;
74100;SDS011;62462;52.530;21.682;2024-01-07T07:01:20;18.37;;;8.70;;
74100;SDS011;62462;52.530;21.682;2024-01-07T07:03:47;20.80;;;8.97;;
74100;SDS011;62462;52.530;21.682;2024-01-07T07:06:12;17.87;;;8.10;;
74100;SDS011;62462;52.530;21.682;2024-01-07T07:08:38;15.53;;;7.80;;
74100;SDS011;62462;52.530;21.682;2024-01-07T07:11:04;15.63;;;7.83;;
74100;SDS011;62462;52.530;21.682;2024-01-07T07:13:29;18.57;;;8.50;;
74100;SDS011;62462;52.530;21.682;2024-01-07T07:15:55;15.83;;;7.93;;
74100;SDS011;62462;52.530;21.682;2024-01-07T07:18:21;18.67;;;7.93;;
74100;SDS011;62462;52.530;21.682;2024-01-07T07:20:46;15.90;;;8.30;;
74100;SDS011;62462;52.530;21.682;2024-01-07T07:23:12;17.27;;;8.30;;
74100;SDS011;62462;52.530;21.682;2024-01-07T07:25:38;13.67;;;7.73;;
74100;SDS011;62462;52.530;21.682;2024-01-07T07:28:04;18.77;;;8.73;;
74100;SDS011;62462;52.530;21.682;2024-01-07T07:30:30;14.00;;;7.60;;
74100;SDS011;62462;52.530;21.682;2024-01-07T07:32:56;19.00;;;8.40;;
74100;SDS011;62462;52.530;21.682;2024-01-07T07:35:21;17.43;;;8.17;;
74100;SDS011;62462;52.530;21.682;2024-01-07T07:37:47;16.67;;;7.33;;
74100;SDS011;62462;52.530;21.682;2024-01-07T07:40:13;18.63;;;8.93;;
74100;SDS011;62462;52.530;21.682;2024-01-07T07:42:39;13.60;;;7.77;;
74100;SDS011;62462;52.530;21.682;2024-01-07T07:45:05;14.73;;;8.27;;
74100;SDS011;62462;52.530;21.682;2024-01-07T07:47:31;12.63;;;7.57;;
74100;SDS011;62462;52.530;21.682;2024-01-07T07:49:57;15.87;;;7.97;;
74100;SDS011;62462;52.530;21.682;2024-01-07T07:52:22;13.87;;;7.87;;
74100;SDS011;62462;52.530;21.682;2024-01-07T07:54:53;17.13;;;7.93;;
74100;SDS011;62462;52.530;21.682;2024-01-07T07:57:19;15.70;;;8.27;;
74100;SDS011;62462;52.530;21.682;2024-01-07T07:59:46;16.33;;;7.80;;
74100;SDS011;62462;52.530;21.682;2024-01-07T08:02:13;16.30;;;8.23;;
74100;SDS011;62462;52.530;21.682;2024-01-07T08:04:38;14.37;;;7.27;;
74100;SDS011;62462;52.530;21.682;2024-01-07T08:07:06;17.00;;;8.10;;
74100;SDS011;62462;52.530;21.682;2024-01-07T08:09:33;14.70;;;7.07;;
74100;SDS011;62462;52.530;21.682;2024-01-07T08:12:02;17.33;;;7.60;;
74100;SDS011;62462;52.530;21.682;2024-01-07T08:14:30;15.17;;;8.00;;
74100;SDS011;62462;52.530;21.682;2024-01-07T08:16:56;16.47;;;7.47;;
74100;SDS011;62462;52.530;21.682;2024-01-07T08:19:22;19.07;;;8.33;;
74100;SDS011;62462;52.530;21.682;2024-01-07T08:21:48;17.40;;;8.03;;
74100;SDS011;62462;52.530;21.682;2024-01-07T08:24:13;15.27;;;7.57;;
74100;SDS011;62462;52.530;21.682;2024-01-07T08:26:39;14.37;;;7.87;;
74100;SDS011;62462;52.530;21.682;2024-01-07T08:29:05;12.80;;;6.80;;
74100;SDS011;62462;52.530;21.682;2024-01-07T08:31:31;13.80;;;7.17;;
74100;SDS011;62462;52.530;21.682;2024-01-07T08:33:57;14.37;;;7.50;;
74100;SDS011;62462;52.530;21.682;2024-01-07T08:36:23;17.17;;;8.60;;
74100;SDS011;62462;52.530;21.682;2024-01-07T08:38:49;14.67;;;7.07;;
74100;SDS011;62462;52.530;21.682;2024-01-07T08:41:15;12.70;;;7.30;;
74100;SDS011;62462;52.530;21.682;2024-01-07T08:43:41;13.43;;;7.77;;
74100;SDS011;62462;52.530;21.682;2024-01-07T08:46:07;14.50;;;7.87;;
74100;SDS011;62462;52.530;21.682;2024-01-07T08:48:32;12.37;;;6.87;;
74100;SDS011;62462;52.530;21.682;2024-01-07T08:50:58;14.50;;;7.37;;
74100;SDS011;62462;52.530;21.682;2024-01-07T08:53:24;14.67;;;6.37;;
74100;SDS011;62462;52.530;21.682;2024-01-07T08:55:50;13.97;;;7.23;;
74100;SDS011;62462;52.530;21.682;2024-01-07T08:58:16;13.20;;;7.20;;
74100;SDS011;62462;52.530;21.682;2024-01-07T09:00:45;16.00;;;7.07;;
74100;SDS011;62462;52.530;21.682;2024-01-07T09:03:10;14.57;;;7.20;;
74100;SDS011;62462;52.530;21.682;2024-01-07T09:05:36;16.77;;;8.13;;
74100;SDS011;62462;52.530;21.682;2024-01-07T09:08:02;15.40;;;6.83;;
74100;SDS011;62462;52.530;21.682;2024-01-07T09:10:28;15.87;;;6.97;;
74100;SDS011;62462;52.530;21.682;2024-01-07T09:12:54;15.00;;;6.97;;
74100;SDS011;62462;52.530;21.682;2024-01-07T09:15:19;15.67;;;7.90;;
74100;SDS011;62462;52.530;21.682;2024-01-07T09:17:46;14.03;;;6.40;;
74100;SDS011;62462;52.530;21.682;2024-01-07T09:20:12;11.37;;;6.63;;
74100;SDS011;62462;52.530;21.682;2024-01-07T09:22:38;12.13;;;6.30;;
74100;SDS011;62462;52.530;21.682;2024-01-07T09:25:05;11.23;;;6.47;;
74100;SDS011;62462;52.530;21.682;2024-01-07T09:27:32;11.33;;;5.93;;
74100;SDS011;62462;52.530;21.682;2024-01-07T09:29:58;17.07;;;6.57;;
74100;SDS011;62462;52.530;21.682;2024-01-07T09:32:24;146.03;;;37.00;;
74100;SDS011;62462;52.530;21.682;2024-01-07T09:34:50;156.83;;;39.53;;
74100;SDS011;62462;52.530;21.682;2024-01-07T09:37:16;124.83;;;32.47;;
74100;SDS011;62462;52.530;21.682;2024-01-07T09:39:42;373.20;;;89.40;;
74100;SDS011;62462;52.530;21.682;2024-01-07T09:42:13;824.10;;;271.67;;
74100;SDS011;62462;52.530;21.682;2024-01-07T09:44:42;198.97;;;55.00;;
74100;SDS011;62462;52.530;21.682;2024-01-07T09:47:13;365.37;;;98.23;;
74100;SDS011;62462;52.530;21.682;2024-01-07T09:49:40;392.30;;;93.20;;
74100;SDS011;62462;52.530;21.682;2024-01-07T09:52:07;133.10;;;33.80;;
74100;SDS011;62462;52.530;21.682;2024-01-07T09:54:35;106.60;;;30.60;;
74100;SDS011;62462;52.530;21.682;2024-01-07T09:57:02;433.93;;;119.37;;
74100;SDS011;62462;52.530;21.682;2024-01-07T09:59:31;122.83;;;33.97;;
74100;SDS011;62462;52.530;21.682;2024-01-07T10:01:57;148.80;;;39.73;;
74100;SDS011;62462;52.530;21.682;2024-01-07T10:04:23;163.17;;;42.10;;
74100;SDS011;62462;52.530;21.682;2024-01-07T10:06:49;210.70;;;48.00;;
74100;SDS011;62462;52.530;21.682;2024-01-07T10:09:16;224.17;;;48.27;;
74100;SDS011;62462;52.530;21.682;2024-01-07T10:11:43;165.73;;;50.23;;
74100;SDS011;62462;52.530;21.682;2024-01-07T10:14:09;222.13;;;75.37;;
74100;SDS011;62462;52.530;21.682;2024-01-07T10:16:35;134.23;;;38.77;;
74100;SDS011;62462;52.530;21.682;2024-01-07T10:19:01;213.63;;;54.47;;
74100;SDS011;62462;52.530;21.682;2024-01-07T10:21:26;89.90;;;27.10;;
74100;SDS011;62462;52.530;21.682;2024-01-07T10:24:08;115.77;;;31.90;;
74100;SDS011;62462;52.530;21.682;2024-01-07T10:26:38;51.23;;;18.17;;
74100;SDS011;62462;52.530;21.682;2024-01-07T10:29:07;43.67;;;14.97;;
74100;SDS011;62462;52.530;21.682;2024-01-07T10:31:37;51.70;;;16.73;;
74100;SDS011;62462;52.530;21.682;2024-01-07T10:34:06;75.17;;;23.17;;
74100;SDS011;62462;52.530;21.682;2024-01-07T10:36:33;58.90;;;20.33;;
74100;SDS011;62462;52.530;21.682;2024-01-07T10:38:59;82.77;;;27.77;;
74100;SDS011;62462;52.530;21.682;2024-01-07T10:41:25;21.37;;;9.23;;
74100;SDS011;62462;52.530;21.682;2024-01-07T10:43:52;58.80;;;20.77;;
74100;SDS011;62462;52.530;21.682;2024-01-07T10:46:19;55.43;;;17.73;;
74100;SDS011;62462;52.530;21.682;2024-01-07T10:48:54;48.77;;;15.77;;
74100;SDS011;62462;52.530;21.682;2024-01-07T10:51:23;27.43;;;10.27;;
74100;SDS011;62462;52.530;21.682;2024-01-07T10:53:52;33.60;;;14.57;;
74100;SDS011;62462;52.530;21.682;2024-01-07T10:56:21;24.17;;;10.53;;
74100;SDS011;62462;52.530;21.682;2024-01-07T10:58:52;24.20;;;10.80;;
74100;SDS011;62462;52.530;21.682;2024-01-07T11:01:22;38.53;;;14.93;;
74100;SDS011;62462;52.530;21.682;2024-01-07T11:11:42;21.77;;;8.50;;
74100;SDS011;62462;52.530;21.682;2024-01-07T11:20:04;16.10;;;8.47;;
74100;SDS011;62462;52.530;21.682;2024-01-07T11:22:45;16.80;;;7.93;;
74100;SDS011;62462;52.530;21.682;2024-01-07T11:25:28;15.63;;;7.43;;
74100;SDS011;62462;52.530;21.682;2024-01-07T11:27:58;27.97;;;11.70;;
74100;SDS011;62462;52.530;21.682;2024-01-07T11:30:26;22.47;;;10.37;;
74100;SDS011;62462;52.530;21.682;2024-01-07T11:32:59;18.13;;;9.33;;
74100;SDS011;62462;52.530;21.682;2024-01-07T11:36:07;14.90;;;7.73;;
74100;SDS011;62462;52.530;21.682;2024-01-07T11:38:21;13.07;;;5.90;;
74100;SDS011;62462;52.530;21.682;2024-01-07T11:40:47;19.83;;;10.00;;
74100;SDS011;62462;52.530;21.682;2024-01-07T11:43:15;17.50;;;8.67;;
74100;SDS011;62462;52.530;21.682;2024-01-07T11:45:41;15.30;;;7.60;;
74100;SDS011;62462;52.530;21.682;2024-01-07T11:48:06;20.57;;;8.13;;
74100;SDS011;62462;52.530;21.682;2024-01-07T11:50:32;22.80;;;8.47;;
74100;SDS011;62462;52.530;21.682;2024-01-07T11:52:58;19.33;;;9.63;;
74100;SDS011;62462;52.530;21.682;2024-01-07T11:55:24;26.77;;;12.43;;
74100;SDS011;62462;52.530;21.682;2024-01-07T11:57:52;14.43;;;7.63;;
74100;SDS011;62462;52.530;21.682;2024-01-07T12:00:17;14.87;;;7.53;;
74100;SDS011;62462;52.530;21.682;2024-01-07T12:02:43;15.93;;;7.90;;
74100;SDS011;62462;52.530;21.682;2024-01-07T12:05:11;13.80;;;6.83;;
74100;SDS011;62462;52.530;21.682;2024-01-07T12:07:38;13.93;;;7.30;;
74100;SDS011;62462;52.530;21.682;2024-01-07T12:10:06;11.60;;;6.50;;
74100;SDS011;62462;52.530;21.682;2024-01-07T12:12:36;13.27;;;7.53;;
74100;SDS011;62462;52.530;21.682;2024-01-07T12:15:07;15.00;;;6.77;;
74100;SDS011;62462;52.530;21.682;2024-01-07T12:17:33;12.60;;;6.97;;
74100;SDS011;62462;52.530;21.682;2024-01-07T12:19:59;13.17;;;7.60;;
74100;SDS011;62462;52.530;21.682;2024-01-07T12:22:29;15.63;;;8.17;;
74100;SDS011;62462;52.530;21.682;2024-01-07T12:25:04;16.23;;;8.00;;
74100;SDS011;62462;52.530;21.682;2024-01-07T12:27:31;14.40;;;8.20;;
74100;SDS011;62462;52.530;21.682;2024-01-07T12:29:59;15.20;;;8.30;;
74100;SDS011;62462;52.530;21.682;2024-01-07T12:32:28;17.57;;;8.43;;
74100;SDS011;62462;52.530;21.682;2024-01-07T12:34:58;16.90;;;8.27;;
74100;SDS011;62462;52.530;21.682;2024-01-07T12:37:27;14.90;;;8.30;;
74100;SDS011;62462;52.530;21.682;2024-01-07T12:39:56;15.07;;;8.10;;
74100;SDS011;62462;52.530;21.682;2024-01-07T12:42:22;21.63;;;9.40;;
74100;SDS011;62462;52.530;21.682;2024-01-07T12:44:49;20.43;;;9.43;;
74100;SDS011;62462;52.530;21.682;2024-01-07T12:47:15;18.23;;;8.23;;
74100;SDS011;62462;52.530;21.682;2024-01-07T12:49:41;15.47;;;7.73;;
74100;SDS011;62462;52.530;21.682;2024-01-07T12:52:07;18.53;;;9.00;;
74100;SDS011;62462;52.530;21.682;2024-01-07T12:54:34;19.20;;;9.57;;
74100;SDS011;62462;52.530;21.682;2024-01-07T12:56:59;24.47;;;9.43;;
74100;SDS011;62462;52.530;21.682;2024-01-07T12:59:25;19.03;;;10.53;;
74100;SDS011;62462;52.530;21.682;2024-01-07T13:01:51;37.67;;;14.30;;
74100;SDS011;62462;52.530;21.682;2024-01-07T13:04:17;51.77;;;16.73;;
74100;SDS011;62462;52.530;21.682;2024-01-07T13:06:44;91.63;;;27.03;;
74100;SDS011;62462;52.530;21.682;2024-01-07T13:09:10;65.63;;;20.93;;
74100;SDS011;62462;52.530;21.682;2024-01-07T13:11:36;89.13;;;27.83;;
74100;SDS011;62462;52.530;21.682;2024-01-07T13:14:02;92.33;;;26.40;;
74100;SDS011;62462;52.530;21.682;2024-01-07T13:16:28;79.13;;;24.57;;
74100;SDS011;62462;52.530;21.682;2024-01-07T13:18:54;133.47;;;34.97;;
74100;SDS011;62462;52.530;21.682;2024-01-07T13:21:20;61.37;;;19.07;;
74100;SDS011;62462;52.530;21.682;2024-01-07T13:23:46;66.13;;;20.97;;
74100;SDS011;62462;52.530;21.682;2024-01-07T13:26:13;93.33;;;26.50;;
74100;SDS011;62462;52.530;21.682;2024-01-07T13:28:40;98.70;;;25.87;;
74100;SDS011;62462;52.530;21.682;2024-01-07T13:31:06;158.47;;;37.70;;
74100;SDS011;62462;52.530;21.682;2024-01-07T13:33:32;207.77;;;53.40;;
74100;SDS011;62462;52.530;21.682;2024-01-07T13:35:58;116.17;;;30.30;;
74100;SDS011;62462;52.530;21.682;2024-01-07T13:38:24;143.17;;;38.37;;
74100;SDS011;62462;52.530;21.682;2024-01-07T13:40:50;116.07;;;32.10;;
74100;SDS011;62462;52.530;21.682;2024-01-07T13:43:16;30.13;;;11.13;;
74100;SDS011;62462;52.530;21.682;2024-01-07T13:45:42;75.30;;;22.93;;
74100;SDS011;62462;52.530;21.682;2024-01-07T13:48:08;124.43;;;33.77;;
74100;SDS011;62462;52.530;21.682;2024-01-07T13:50:34;149.27;;;42.10;;
74100;SDS011;62462;52.530;21.682;2024-01-07T13:53:00;225.47;;;55.60;;
74100;SDS011;62462;52.530;21.682;2024-01-07T13:55:26;151.53;;;39.40;;
74100;SDS011;62462;52.530;21.682;2024-01-07T13:57:52;127.83;;;33.50;;
74100;SDS011;62462;52.530;21.682;2024-01-07T14:00:18;93.67;;;24.43;;
74100;SDS011;62462;52.530;21.682;2024-01-07T14:02:44;108.37;;;30.53;;
74100;SDS011;62462;52.530;21.682;2024-01-07T14:05:12;158.83;;;40.60;;
74100;SDS011;62462;52.530;21.682;2024-01-07T14:07:38;103.23;;;30.80;;
74100;SDS011;62462;52.530;21.682;2024-01-07T14:10:04;162.20;;;44.17;;
74100;SDS011;62462;52.530;21.682;2024-01-07T14:12:31;188.30;;;50.67;;
74100;SDS011;62462;52.530;21.682;2024-01-07T14:14:57;140.47;;;37.90;;
74100;SDS011;62462;52.530;21.682;2024-01-07T14:17:26;75.27;;;22.70;;
74100;SDS011;62462;52.530;21.682;2024-01-07T14:19:52;79.10;;;24.10;;